Gere — LG9010 — position and weather

sailwx.info

Track history (hours):
 
Tides and Currents Weather Stations Pressure Air Temp Water Temp Dewpoint Dewpoint Depression Visibility Wind Speed Wind Dir Waves Ship Positions

Gere

Last reported at 2017-Oct-17 00:59 UTC. Time now 2017-Oct-17 01:07 UTC.
Position N 69°04' E 016°49'.

Length 15 m; draft 2.2 m.

Type: Wing in ground effect craft. MMSI: 257874500.

Date/timePositionNaut miles runAvg speedWind from/ knotsBaromVisibWave heightAir tempDewpointWater temp
2017-Oct-17 00:59N 69°04' E 016°49'0 0.0
2017-Oct-17 00:29N 69°04' E 016°49'0 0.0
2017-Oct-17 00:00N 69°04' E 016°49'0 0.0
2017-Oct-16 23:30N 69°04' E 016°49'0 0.0
2017-Oct-16 23:00N 69°04' E 016°49'0 0.0
2017-Oct-16 22:30N 69°04' E 016°49'0 0.0
2017-Oct-16 22:00N 69°04' E 016°49'0 0.0
2017-Oct-16 21:30N 69°04' E 016°49'0 0.0
2017-Oct-16 21:00N 69°04' E 016°49'0 0.0
2017-Oct-16 20:28N 69°04' E 016°49'0 0.0
2017-Oct-16 19:58N 69°04' E 016°49'0 0.0
2017-Oct-16 19:28N 69°04' E 016°49'0 0.0
2017-Oct-16 18:59N 69°04' E 016°49'0 0.0
2017-Oct-16 18:29N 69°04' E 016°49'0 0.0
2017-Oct-16 17:55N 69°04' E 016°49'0 0.0
2017-Oct-16 17:28N 69°04' E 016°49'0 0.0
2017-Oct-16 16:58N 69°04' E 016°49'0 0.0
2017-Oct-16 16:28N 69°04' E 016°49'0 0.0
2017-Oct-16 15:57N 69°04' E 016°49'3 7.4
2017-Oct-16 15:30N 69°01' E 016°46'4 8.6
2017-Oct-16 15:00N 68°56' E 016°44'0 0.2
2017-Oct-16 13:59N 68°56' E 016°44'0 0.0
2017-Oct-16 13:30N 68°56' E 016°44'0 0.0
2017-Oct-16 13:00N 68°56' E 016°44'0 0.0
2017-Oct-16 12:30N 68°56' E 016°44'0 0.0
2017-Oct-16 12:00N 68°56' E 016°44'0 0.1
2017-Oct-16 11:28N 68°56' E 016°44'0 0.0
2017-Oct-16 10:56N 68°56' E 016°44'0 0.0
2017-Oct-16 10:29N 68°56' E 016°43'0 0.0
2017-Oct-16 09:58N 68°56' E 016°43'0 0.0
2017-Oct-16 09:28N 68°56' E 016°43'0 0.0
2017-Oct-16 09:00N 68°56' E 016°43'0 0.0
2017-Oct-16 08:28N 68°56' E 016°44'0 0.0
2017-Oct-16 07:53N 68°56' E 016°43'0 0.0
2017-Oct-16 07:28N 68°56' E 016°43'0 0.0
2017-Oct-16 06:56N 68°56' E 016°43'0 0.0
2017-Oct-16 06:28N 68°56' E 016°43'0 0.7
2017-Oct-16 06:00N 68°56' E 016°43'5 9.4
2017-Oct-16 05:30N 68°52' E 016°38'4 7.8
2017-Oct-16 05:00N 68°48' E 016°33'0 0.0
2017-Oct-16 04:28N 68°48' E 016°33'0 0.0
2017-Oct-16 03:58N 68°48' E 016°33'0 0.0
2017-Oct-16 03:28N 68°48' E 016°33'0 0.0
2017-Oct-16 02:58N 68°48' E 016°33'0 0.0
2017-Oct-16 02:28N 68°48' E 016°33'0 0.0
2017-Oct-16 01:58N 68°48' E 016°33'0 0.0
2017-Oct-16 01:28N 68°48' E 016°33'0 0.0
2017-Oct-16 00:56N 68°48' E 016°33'0 0.0
2017-Oct-16 00:29N 68°48' E 016°33'0 0.0
2017-Oct-15 23:54N 68°48' E 016°33'0 0.0
2017-Oct-15 23:30N 68°48' E 016°33'0 0.0
2017-Oct-15 23:00N 68°48' E 016°33'0 0.0
2017-Oct-15 22:28N 68°48' E 016°33'0 0.0
2017-Oct-15 21:58N 68°48' E 016°33'0 0.0
2017-Oct-15 21:28N 68°48' E 016°33'0 0.0
2017-Oct-15 21:00N 68°48' E 016°33'0 0.0
2017-Oct-15 20:30N 68°48' E 016°33'0 0.0
2017-Oct-15 20:00N 68°48' E 016°33'0 0.0
2017-Oct-15 19:30N 68°48' E 016°33'0 0.0
2017-Oct-15 18:58N 68°48' E 016°33'0 0.0
2017-Oct-15 18:28N 68°48' E 016°33'0 0.0
2017-Oct-15 18:00N 68°48' E 016°33'0 0.0
2017-Oct-15 17:30N 68°48' E 016°33'0 0.0
2017-Oct-15 16:58N 68°48' E 016°33'0 0.0
2017-Oct-15 16:28N 68°48' E 016°33'0 0.0
2017-Oct-15 15:59N 68°48' E 016°33'0 0.0
2017-Oct-15 15:30N 68°48' E 016°33'0 0.0
2017-Oct-15 14:59N 68°48' E 016°33'0 0.0
2017-Oct-15 13:59N 68°48' E 016°33'2 4.2
2017-Oct-15 13:30N 68°50' E 016°36'4 8.7
2017-Oct-15 13:00N 68°54' E 016°40'2 3.9
2017-Oct-15 12:30N 68°56' E 016°42'0 0.0
2017-Oct-15 12:00N 68°56' E 016°42'0 0.0
2017-Oct-15 11:30N 68°56' E 016°42'0 0.0
2017-Oct-15 11:00N 68°56' E 016°42'0 0.0
2017-Oct-15 10:30N 68°56' E 016°42'0 0.0
2017-Oct-15 09:53N 68°56' E 016°42'0 0.0
2017-Oct-15 09:28N 68°56' E 016°42'2 4.6
2017-Oct-15 09:00N 68°56' E 016°48'4 8.6
2017-Oct-15 08:30N 68°58' E 016°59'4 8.5
2017-Oct-15 07:59N 68°59' E 017°10'4 8.5
2017-Oct-15 07:30N 69°02' E 017°19'4 8.6
2017-Oct-15 07:00N 69°06' E 017°25'5 8.8
2017-Oct-15 06:30N 69°07' E 017°37'4 8.9
2017-Oct-15 06:00N 69°09' E 017°49'4 9.0
2017-Oct-15 05:30N 69°11' E 017°60'3 5.4
2017-Oct-15 05:00N 69°13' E 018°04'0 0.0
2017-Oct-15 04:30N 69°13' E 018°04'0 0.0
2017-Oct-15 04:00N 69°13' E 018°04'0 0.0
2017-Oct-15 03:29N 69°13' E 018°04'0 0.0
2017-Oct-15 02:59N 69°13' E 018°04'0 0.0
2017-Oct-15 02:29N 69°13' E 018°04'0 0.0
2017-Oct-15 01:59N 69°13' E 018°04'0 0.0
2017-Oct-15 01:29N 69°13' E 018°04'0 0.0
2017-Oct-15 00:59N 69°13' E 018°04'0 0.0
2017-Oct-15 00:29N 69°13' E 018°04'0 0.0
2017-Oct-14 23:59N 69°13' E 018°04'0 0.0
2017-Oct-14 23:29N 69°13' E 018°04'0 0.0
2017-Oct-14 23:00N 69°13' E 018°04'0 0.0
2017-Oct-14 22:30N 69°13' E 018°04'0 0.0
2017-Oct-14 22:00N 69°13' E 018°04'0 0.0
2017-Oct-14 21:30N 69°13' E 018°04'0 0.0
2017-Oct-14 20:58N 69°13' E 018°04'0 0.0
2017-Oct-14 20:28N 69°13' E 018°04'0 0.0
2017-Oct-14 19:58N 69°13' E 018°04'0 0.0
2017-Oct-14 19:28N 69°13' E 018°04'0 0.0
2017-Oct-14 18:58N 69°13' E 018°04'0 0.0
2017-Oct-14 18:28N 69°13' E 018°04'0 0.0
2017-Oct-14 17:58N 69°13' E 018°04'0 0.0
2017-Oct-14 17:28N 69°13' E 018°04'0 0.0
2017-Oct-14 16:58N 69°13' E 018°04'0 0.0
2017-Oct-14 16:28N 69°13' E 018°04'0 0.0
2017-Oct-14 15:58N 69°13' E 018°04'0 0.0
2017-Oct-14 15:30N 69°13' E 018°04'0 0.0
2017-Oct-14 14:59N 69°13' E 018°04'0 0.0
2017-Oct-14 14:29N 69°13' E 018°04'0 0.0
2017-Oct-14 14:00N 69°13' E 018°04'0 0.0
2017-Oct-14 13:29N 69°13' E 018°04'0 0.0
2017-Oct-14 12:59N 69°13' E 018°04'0 0.0
2017-Oct-14 12:30N 69°13' E 018°04'0 0.0
2017-Oct-14 12:00N 69°13' E 018°04'0 0.0
2017-Oct-14 11:30N 69°13' E 018°04'0 0.0
2017-Oct-14 11:00N 69°13' E 018°04'0 0.0
2017-Oct-14 10:29N 69°13' E 018°04'0 0.1
2017-Oct-14 10:00N 69°13' E 018°04'0 0.0
2017-Oct-14 09:30N 69°13' E 018°04'0 0.0
2017-Oct-14 09:00N 69°13' E 018°04'0 0.0
2017-Oct-14 08:30N 69°13' E 018°04'0 0.0
2017-Oct-14 08:00N 69°13' E 018°04'0 0.0
2017-Oct-14 07:30N 69°13' E 018°04'0 0.0
2017-Oct-14 07:00N 69°13' E 018°04'0 0.0
2017-Oct-14 06:30N 69°13' E 018°04'0 0.0
2017-Oct-14 06:00N 69°13' E 018°04'0 0.1
2017-Oct-14 05:28N 69°13' E 018°04'0 0.0
2017-Oct-14 04:58N 69°13' E 018°04'0 0.0
2017-Oct-14 04:28N 69°13' E 018°04'0 0.0
2017-Oct-14 03:58N 69°13' E 018°04'0 0.0
2017-Oct-14 03:28N 69°13' E 018°04'0 0.0
2017-Oct-14 02:58N 69°13' E 018°04'0 0.0
2017-Oct-14 02:28N 69°13' E 018°04'0 0.0
2017-Oct-14 01:58N 69°13' E 018°04'0 0.0
2017-Oct-14 01:28N 69°13' E 018°04'0 0.0
2017-Oct-14 00:58N 69°13' E 018°04'0 0.0
2017-Oct-14 00:28N 69°13' E 018°04'0 0.0
2017-Oct-13 23:58N 69°13' E 018°04'0 0.0
2017-Oct-13 23:28N 69°13' E 018°04'0 0.0
2017-Oct-13 22:58N 69°13' E 018°04'0 0.0
2017-Oct-13 22:28N 69°13' E 018°04'0 0.0
2017-Oct-13 21:58N 69°13' E 018°04'0 0.0
2017-Oct-13 21:28N 69°13' E 018°04'0 0.0
2017-Oct-13 20:56N 69°13' E 018°04'0 0.0
2017-Oct-13 20:29N 69°13' E 018°04'0 0.0
2017-Oct-13 19:59N 69°13' E 018°04'0 0.0
2017-Oct-13 19:30N 69°13' E 018°04'0 0.0
2017-Oct-13 19:00N 69°13' E 018°04'0 0.0
2017-Oct-13 18:30N 69°13' E 018°04'0 0.4
2017-Oct-13 18:00N 69°13' E 018°04'4 8.6
2017-Oct-13 17:30N 69°10' E 017°56'5 9.3
2017-Oct-13 17:00N 69°08' E 017°44'5 9.4
2017-Oct-13 16:30N 69°07' E 017°32'4 8.6
2017-Oct-13 16:00N 69°04' E 017°22'5 9.2
2017-Oct-13 15:30N 69°00' E 017°14'5 9.0
2017-Oct-13 15:00N 68°59' E 017°03'4 8.6
2017-Oct-13 14:30N 69°00' E 016°51'4 7.7
2017-Oct-13 14:00N 69°04' E 016°47'0 0.7
2017-Oct-13 13:30N 69°04' E 016°47'5 9.0
2017-Oct-13 12:59N 68°59' E 016°46'3 6.0
2017-Oct-13 12:29N 68°56' E 016°44'0 0.2
2017-Oct-13 11:58N 68°56' E 016°43'0 0.0
2017-Oct-13 11:30N 68°56' E 016°43'0 0.0
2017-Oct-13 10:59N 68°56' E 016°43'0 0.0
2017-Oct-13 10:29N 68°56' E 016°43'0 0.0
2017-Oct-13 09:59N 68°56' E 016°43'0 0.0
2017-Oct-13 09:29N 68°56' E 016°43'0 0.0
2017-Oct-13 09:00N 68°56' E 016°43'0 0.0
2017-Oct-13 08:30N 68°56' E 016°43'0 0.1
2017-Oct-13 07:58N 68°56' E 016°44'6 0.4
2017-Oct-12 16:24N 68°50' E 016°37'3 8.5
2017-Oct-12 16:00N 68°54' E 016°40'3 5.6
2017-Oct-12 15:30N 68°56' E 016°44'0 0.0
2017-Oct-12 15:00N 68°56' E 016°44'0 0.0
2017-Oct-12 14:30N 68°56' E 016°44'0 0.0
2017-Oct-12 14:00N 68°56' E 016°44'0 0.0
2017-Oct-12 13:28N 68°56' E 016°44'0 0.0
2017-Oct-12 12:57N 68°56' E 016°44'1 1.5
2017-Oct-12 12:30N 68°56' E 016°42'1 2.3
2017-Oct-12 12:00N 68°56' E 016°40'5 9.1
2017-Oct-12 11:30N 68°52' E 016°38'0 0.3
2017-Oct-12 11:00N 68°52' E 016°39'4 7.9
2017-Oct-12 10:30N 68°56' E 016°42'0 0.1
2017-Oct-12 09:58N 68°56' E 016°42'0 0.0
2017-Oct-12 09:28N 68°56' E 016°42'1 1.5
2017-Oct-12 09:00N 68°56' E 016°44'0 0.7
2017-Oct-12 08:30N 68°56' E 016°43'0 0.1
2017-Oct-12 07:58N 68°56' E 016°43'0 0.0
2017-Oct-12 07:28N 68°56' E 016°43'0 0.0
2017-Oct-12 06:59N 68°56' E 016°43'0 0.0
2017-Oct-12 06:29N 68°56' E 016°43'0 0.0
2017-Oct-12 06:00N 68°56' E 016°43'0 0.0
2017-Oct-12 05:29N 68°56' E 016°43'2 5.1
2017-Oct-12 05:00N 68°54' E 016°40'4 9.0
2017-Oct-12 04:30N 68°50' E 016°36'2 3.5
2017-Oct-12 03:58N 68°48' E 016°33'0 0.0
2017-Oct-12 03:29N 68°48' E 016°33'0 0.0
2017-Oct-12 02:58N 68°48' E 016°33'0 0.0
2017-Oct-12 02:28N 68°48' E 016°33'0 0.0
2017-Oct-12 01:58N 68°48' E 016°33'0 0.0
2017-Oct-12 01:28N 68°48' E 016°33'0 0.0
2017-Oct-12 00:57N 68°48' E 016°33'0 0.0
2017-Oct-12 00:30N 68°48' E 016°33'0 0.0
2017-Oct-12 00:00N 68°48' E 016°33'0 0.0
2017-Oct-11 23:29N 68°48' E 016°33'0 0.0
2017-Oct-11 22:59N 68°48' E 016°33'0 0.0
2017-Oct-11 22:29N 68°48' E 016°33'0 0.0
2017-Oct-11 21:59N 68°48' E 016°33'0 0.0
2017-Oct-11 21:29N 68°48' E 016°33'0 0.0
2017-Oct-11 21:00N 68°48' E 016°33'0 0.0
2017-Oct-11 20:30N 68°48' E 016°33'0 0.0
2017-Oct-11 19:59N 68°48' E 016°33'0 0.0
2017-Oct-11 19:29N 68°48' E 016°33'0 0.0
2017-Oct-11 18:58N 68°48' E 016°33'0 0.0
2017-Oct-11 18:30N 68°48' E 016°33'0 0.0
2017-Oct-11 18:00N 68°48' E 016°33'0 0.0
2017-Oct-11 17:28N 68°48' E 016°33'0 0.0
2017-Oct-11 16:58N 68°48' E 016°33'17 1.0
2017-Oct-11 00:00N 69°04' E 016°49'0 0.0
2017-Oct-10 23:30N 69°04' E 016°49'0 0.0
2017-Oct-10 23:00N 69°04' E 016°49'0 0.0
2017-Oct-10 22:30N 69°04' E 016°49'0 0.0
2017-Oct-10 22:00N 69°04' E 016°49'0 0.0
2017-Oct-10 21:30N 69°04' E 016°49'0 0.0
2017-Oct-10 21:00N 69°04' E 016°49'0 0.0
2017-Oct-10 20:28N 69°04' E 016°49'0 0.0
2017-Oct-10 19:58N 69°04' E 016°49'0 0.0
2017-Oct-10 19:27N 69°04' E 016°49'0 0.0
2017-Oct-10 19:00N 69°04' E 016°49'0 0.0
2017-Oct-10 18:28N 69°04' E 016°49'0 0.0
2017-Oct-10 17:58N 69°04' E 016°49'0 0.0
2017-Oct-10 17:29N 69°04' E 016°49'0 0.0
2017-Oct-10 16:59N 69°04' E 016°49'0 0.0
2017-Oct-10 16:30N 69°04' E 016°49'0 0.0
2017-Oct-10 15:54N 69°04' E 016°49'0 0.4
2017-Oct-10 15:30N 69°04' E 016°48'4 8.9
2017-Oct-10 15:00N 68°60' E 016°46'4 4.0
2017-Oct-10 13:57N 68°56' E 016°42'0 0.0
2017-Oct-10 13:28N 68°56' E 016°42'0 0.0
2017-Oct-10 12:58N 68°56' E 016°42'0 0.0
2017-Oct-10 12:29N 68°56' E 016°42'0 0.0
2017-Oct-10 11:59N 68°56' E 016°42'0 0.0
2017-Oct-10 11:29N 68°56' E 016°42'0 0.0
2017-Oct-10 10:59N 68°56' E 016°42'0 0.0
2017-Oct-10 10:29N 68°56' E 016°42'0 0.0
2017-Oct-10 09:59N 68°56' E 016°42'0 0.1
2017-Oct-10 09:30N 68°56' E 016°42'0 0.0
2017-Oct-10 08:58N 68°56' E 016°42'0 0.0
2017-Oct-10 08:30N 68°56' E 016°42'0 0.0
2017-Oct-10 08:00N 68°56' E 016°42'0 0.0
2017-Oct-10 07:30N 68°56' E 016°42'0 0.0
2017-Oct-10 06:58N 68°56' E 016°42'0 0.0
2017-Oct-10 06:28N 68°56' E 016°42'0 0.0
2017-Oct-10 05:58N 68°56' E 016°42'0 0.0
2017-Oct-10 05:28N 68°56' E 016°42'0 0.0
2017-Oct-10 04:59N 68°56' E 016°42'3 5.8
2017-Oct-10 04:30N 68°53' E 016°39'5 9.3
2017-Oct-10 03:59N 68°49' E 016°35'1 1.7
2017-Oct-10 03:29N 68°48' E 016°33'0 0.0
2017-Oct-10 03:00N 68°48' E 016°33'0 0.0
2017-Oct-10 02:30N 68°48' E 016°33'0 0.0
2017-Oct-10 02:00N 68°48' E 016°33'0 0.0
2017-Oct-10 01:29N 68°48' E 016°33'0 0.0
2017-Oct-10 00:58N 68°48' E 016°33'0 0.0
2017-Oct-10 00:30N 68°48' E 016°33'0 0.0
2017-Oct-10 00:00N 68°48' E 016°33'0 0.0
2017-Oct-09 23:30N 68°48' E 016°33'0 0.0
2017-Oct-09 23:00N 68°48' E 016°33'0 0.0
2017-Oct-09 22:30N 68°48' E 016°33'0 0.0
2017-Oct-09 22:00N 68°48' E 016°33'0 0.0
2017-Oct-09 21:30N 68°48' E 016°33'0 0.0
2017-Oct-09 21:00N 68°48' E 016°33'0 0.0
2017-Oct-09 20:30N 68°48' E 016°33'0 0.0
2017-Oct-09 19:58N 68°48' E 016°33'0 0.0
2017-Oct-09 19:28N 68°48' E 016°33'0 0.0
2017-Oct-09 19:00N 68°48' E 016°33'0 0.0
2017-Oct-09 18:30N 68°48' E 016°33'0 0.0
2017-Oct-09 18:00N 68°48' E 016°33'0 0.0
2017-Oct-09 17:30N 68°48' E 016°33'0 0.0
2017-Oct-09 17:00N 68°48' E 016°33'0 0.0
2017-Oct-09 16:30N 68°48' E 016°33'0 0.0
2017-Oct-09 16:00N 68°48' E 016°33'0 0.0
2017-Oct-09 15:30N 68°48' E 016°33'3 6.5
2017-Oct-09 15:00N 68°51' E 016°37'5 9.7
2017-Oct-09 14:30N 68°56' E 016°39'1 2.0
2017-Oct-09 13:58N 68°56' E 016°42'0 0.1
2017-Oct-09 13:29N 68°56' E 016°42'0 0.0
2017-Oct-09 12:59N 68°56' E 016°42'0 0.0
2017-Oct-09 12:24N 68°56' E 016°42'0 0.0
2017-Oct-09 11:59N 68°56' E 016°42'0 0.0
2017-Oct-09 11:29N 68°56' E 016°42'0 0.0
2017-Oct-09 10:58N 68°56' E 016°42'0 0.1
2017-Oct-09 10:29N 68°56' E 016°42'0 0.1
2017-Oct-09 10:00N 68°56' E 016°42'0 0.0
2017-Oct-09 09:29N 68°56' E 016°42'0 0.0
2017-Oct-09 09:00N 68°56' E 016°42'0 0.0
2017-Oct-09 08:27N 68°56' E 016°42'0 0.0
2017-Oct-09 07:59N 68°56' E 016°42'0 0.0
2017-Oct-09 07:29N 68°56' E 016°42'0 0.0
2017-Oct-09 06:58N 68°56' E 016°42'0 0.0
2017-Oct-09 06:26N 68°56' E 016°42'0 0.1
2017-Oct-09 06:00N 68°56' E 016°42'0 0.4
2017-Oct-09 05:30N 68°56' E 016°42'0 0.0
2017-Oct-09 05:00N 68°56' E 016°42'3 5.3
2017-Oct-09 04:30N 68°53' E 016°39'5 9.6
2017-Oct-09 04:00N 68°49' E 016°35'1 1.8
2017-Oct-09 03:29N 68°48' E 016°33'0 0.0
2017-Oct-09 02:58N 68°48' E 016°33'0 0.0
2017-Oct-09 02:28N 68°48' E 016°33'0 0.0
2017-Oct-09 01:58N 68°48' E 016°33'0 0.0
2017-Oct-09 01:29N 68°48' E 016°33'0 0.0
2017-Oct-09 00:59N 68°48' E 016°33'0 0.0
2017-Oct-09 00:30N 68°48' E 016°33'0 0.0
2017-Oct-09 00:00N 68°48' E 016°33'0 0.0
2017-Oct-08 23:30N 68°48' E 016°33'0 0.0
2017-Oct-08 23:00N 68°48' E 016°33'0 0.0
2017-Oct-08 22:30N 68°48' E 016°33'0 0.0
2017-Oct-08 21:58N 68°48' E 016°33'0 0.0
2017-Oct-08 21:30N 68°48' E 016°33'0 0.0
2017-Oct-08 20:58N 68°48' E 016°33'0 0.0
2017-Oct-08 20:28N 68°48' E 016°33'0 0.0
2017-Oct-08 20:00N 68°48' E 016°33'0 0.0
2017-Oct-08 19:30N 68°48' E 016°33'0 0.0
2017-Oct-08 19:00N 68°48' E 016°33'0 0.0
2017-Oct-08 18:30N 68°48' E 016°33'0 0.0
2017-Oct-08 18:00N 68°48' E 016°33'4 8.4
2017-Oct-08 17:30N 68°52' E 016°38'5 9.2
2017-Oct-08 17:00N 68°56' E 016°40'1 2.0
2017-Oct-08 16:30N 68°56' E 016°41'5 9.7
2017-Oct-08 15:59N 68°57' E 016°54'5 9.6
2017-Oct-08 15:29N 68°59' E 017°06'5 9.6
2017-Oct-08 15:00N 69°01' E 017°17'5 9.6
2017-Oct-08 14:30N 69°05' E 017°25'5 9.6
2017-Oct-08 14:00N 69°07' E 017°37'5 9.5
2017-Oct-08 13:30N 69°09' E 017°49'5 9.5
2017-Oct-08 13:00N 69°11' E 018°01'2 4.4
2017-Oct-08 12:30N 69°13' E 018°04'0 0.0
2017-Oct-08 12:00N 69°13' E 018°04'0 0.0
2017-Oct-08 11:30N 69°13' E 018°04'0 0.0
2017-Oct-08 11:00N 69°13' E 018°04'0 0.0
2017-Oct-08 10:30N 69°13' E 018°04'0 0.0
2017-Oct-08 09:59N 69°13' E 018°04'0 0.0
2017-Oct-08 09:29N 69°13' E 018°04'0 0.0
2017-Oct-08 08:59N 69°13' E 018°04'0 0.0
2017-Oct-08 08:29N 69°13' E 018°04'0 0.0
2017-Oct-08 07:59N 69°13' E 018°04'0 0.0
2017-Oct-08 07:29N 69°13' E 018°04'0 0.1
2017-Oct-08 06:59N 69°13' E 018°04'0 0.0
2017-Oct-08 06:29N 69°13' E 018°04'0 0.0
2017-Oct-08 05:59N 69°13' E 018°04'0 0.0
2017-Oct-08 05:29N 69°13' E 018°04'0 0.0
2017-Oct-08 04:59N 69°13' E 018°04'0 0.0
2017-Oct-08 04:29N 69°13' E 018°04'0 0.0
2017-Oct-08 03:59N 69°13' E 018°04'0 0.0
2017-Oct-08 03:29N 69°13' E 018°04'0 0.0
2017-Oct-08 02:59N 69°13' E 018°04'0 0.0
2017-Oct-08 02:29N 69°13' E 018°04'0 0.0
2017-Oct-08 01:59N 69°13' E 018°04'0 0.0
2017-Oct-08 01:29N 69°13' E 018°04'0 0.0
2017-Oct-08 00:58N 69°13' E 018°04'0 0.0
2017-Oct-08 00:28N 69°13' E 018°04'0 0.0
2017-Oct-07 23:58N 69°13' E 018°04'0 0.0
2017-Oct-07 23:28N 69°13' E 018°04'0 0.0
2017-Oct-07 22:58N 69°13' E 018°04'0 0.0
2017-Oct-07 22:28N 69°13' E 018°04'0 0.0
2017-Oct-07 21:58N 69°13' E 018°04'0 0.0
2017-Oct-07 21:28N 69°13' E 018°04'0 0.0
2017-Oct-07 20:58N 69°13' E 018°04'0 0.0
2017-Oct-07 20:28N 69°13' E 018°04'0 0.0
2017-Oct-07 19:58N 69°13' E 018°04'0 0.0
2017-Oct-07 19:30N 69°13' E 018°04'0 0.0
2017-Oct-07 19:00N 69°13' E 018°04'0 0.0
2017-Oct-07 18:30N 69°13' E 018°04'0 0.0
2017-Oct-07 18:00N 69°13' E 018°04'0 0.0
2017-Oct-07 17:30N 69°13' E 018°04'0 0.0
2017-Oct-07 17:00N 69°13' E 018°04'0 0.0
2017-Oct-07 16:30N 69°13' E 018°04'0 0.0
2017-Oct-07 16:00N 69°13' E 018°04'0 0.0
2017-Oct-07 15:30N 69°13' E 018°04'0 0.0
2017-Oct-07 15:00N 69°13' E 018°04'4 8.5
2017-Oct-07 14:30N 69°10' E 017°56'5 9.8
2017-Oct-07 14:00N 69°08' E 017°43'3 5.8
2017-Oct-07 13:30N 69°09' E 017°35'4 7.2
2017-Oct-07 13:00N 69°05' E 017°31'0 0.0
2017-Oct-07 12:30N 69°05' E 017°31'0 0.0
2017-Oct-07 12:00N 69°05' E 017°31'0 0.0
2017-Oct-07 11:30N 69°05' E 017°31'0 0.0
2017-Oct-07 11:00N 69°05' E 017°31'0 0.0
2017-Oct-07 10:30N 69°05' E 017°31'0 0.0
2017-Oct-07 10:00N 69°05' E 017°31'0 0.0
2017-Oct-07 09:30N 69°05' E 017°31'0 0.0
2017-Oct-07 09:00N 69°05' E 017°31'0 0.0
2017-Oct-07 08:30N 69°05' E 017°31'0 0.0
2017-Oct-07 08:00N 69°05' E 017°31'0 0.0
2017-Oct-07 07:30N 69°05' E 017°31'0 0.0
2017-Oct-07 07:00N 69°05' E 017°31'0 0.0
2017-Oct-07 06:27N 69°05' E 017°31'0 0.0
2017-Oct-07 06:00N 69°05' E 017°31'1 2.4
2017-Oct-07 05:30N 69°06' E 017°32'3 6.3
2017-Oct-07 04:58N 69°10' E 017°36'0 0.0
2017-Oct-07 04:28N 69°10' E 017°36'0 0.0
2017-Oct-07 03:55N 69°10' E 017°36'0 0.0
2017-Oct-07 03:28N 69°10' E 017°36'0 0.0
2017-Oct-07 02:57N 69°10' E 017°36'0 0.0
2017-Oct-07 02:30N 69°10' E 017°36'0 0.0
2017-Oct-07 01:58N 69°10' E 017°36'0 0.0
2017-Oct-07 01:29N 69°10' E 017°36'  
Track history (hours):
 
Tides and Currents Weather Stations Pressure Air Temp Water Temp Dewpoint Dewpoint Depression Visibility Wind Speed Wind Dir Waves Ship Positions

Gere

Last reported at 2017-Oct-17 00:59 UTC. Time now 2017-Oct-17 01:07 UTC.
Position N 69°04' E 016°49'.

Length 15 m; draft 2.2 m.

Type: Wing in ground effect craft. MMSI: 257874500.

Date/timePositionNaut miles runAvg speedWind from/ knotsBaromVisibWave heightAir tempDewpointWater temp
2017-Oct-17 00:59N 69°04' E 016°49'0 0.0
2017-Oct-17 00:29N 69°04' E 016°49'0 0.0
2017-Oct-17 00:00N 69°04' E 016°49'0 0.0
2017-Oct-16 23:30N 69°04' E 016°49'0 0.0
2017-Oct-16 23:00N 69°04' E 016°49'0 0.0
2017-Oct-16 22:30N 69°04' E 016°49'0 0.0
2017-Oct-16 22:00N 69°04' E 016°49'0 0.0
2017-Oct-16 21:30N 69°04' E 016°49'0 0.0
2017-Oct-16 21:00N 69°04' E 016°49'0 0.0
2017-Oct-16 20:28N 69°04' E 016°49'0 0.0
2017-Oct-16 19:58N 69°04' E 016°49'0 0.0
2017-Oct-16 19:28N 69°04' E 016°49'0 0.0
2017-Oct-16 18:59N 69°04' E 016°49'0 0.0
2017-Oct-16 18:29N 69°04' E 016°49'0 0.0
2017-Oct-16 17:55N 69°04' E 016°49'0 0.0
2017-Oct-16 17:28N 69°04' E 016°49'0 0.0
2017-Oct-16 16:58N 69°04' E 016°49'0 0.0
2017-Oct-16 16:28N 69°04' E 016°49'0 0.0
2017-Oct-16 15:57N 69°04' E 016°49'3 7.4
2017-Oct-16 15:30N 69°01' E 016°46'4 8.6
2017-Oct-16 15:00N 68°56' E 016°44'0 0.2
2017-Oct-16 13:59N 68°56' E 016°44'0 0.0
2017-Oct-16 13:30N 68°56' E 016°44'0 0.0
2017-Oct-16 13:00N 68°56' E 016°44'0 0.0
2017-Oct-16 12:30N 68°56' E 016°44'0 0.0
2017-Oct-16 12:00N 68°56' E 016°44'0 0.1
2017-Oct-16 11:28N 68°56' E 016°44'0 0.0
2017-Oct-16 10:56N 68°56' E 016°44'0 0.0
2017-Oct-16 10:29N 68°56' E 016°43'0 0.0
2017-Oct-16 09:58N 68°56' E 016°43'0 0.0
2017-Oct-16 09:28N 68°56' E 016°43'0 0.0
2017-Oct-16 09:00N 68°56' E 016°43'0 0.0
2017-Oct-16 08:28N 68°56' E 016°44'0 0.0
2017-Oct-16 07:53N 68°56' E 016°43'0 0.0
2017-Oct-16 07:28N 68°56' E 016°43'0 0.0
2017-Oct-16 06:56N 68°56' E 016°43'0 0.0
2017-Oct-16 06:28N 68°56' E 016°43'0 0.7
2017-Oct-16 06:00N 68°56' E 016°43'5 9.4
2017-Oct-16 05:30N 68°52' E 016°38'4 7.8
2017-Oct-16 05:00N 68°48' E 016°33'0 0.0
2017-Oct-16 04:28N 68°48' E 016°33'0 0.0
2017-Oct-16 03:58N 68°48' E 016°33'0 0.0
2017-Oct-16 03:28N 68°48' E 016°33'0 0.0
2017-Oct-16 02:58N 68°48' E 016°33'0 0.0
2017-Oct-16 02:28N 68°48' E 016°33'0 0.0
2017-Oct-16 01:58N 68°48' E 016°33'0 0.0
2017-Oct-16 01:28N 68°48' E 016°33'0 0.0
2017-Oct-16 00:56N 68°48' E 016°33'0 0.0
2017-Oct-16 00:29N 68°48' E 016°33'0 0.0
2017-Oct-15 23:54N 68°48' E 016°33'0 0.0
2017-Oct-15 23:30N 68°48' E 016°33'0 0.0
2017-Oct-15 23:00N 68°48' E 016°33'0 0.0
2017-Oct-15 22:28N 68°48' E 016°33'0 0.0
2017-Oct-15 21:58N 68°48' E 016°33'0 0.0
2017-Oct-15 21:28N 68°48' E 016°33'0 0.0
2017-Oct-15 21:00N 68°48' E 016°33'0 0.0
2017-Oct-15 20:30N 68°48' E 016°33'0 0.0
2017-Oct-15 20:00N 68°48' E 016°33'0 0.0
2017-Oct-15 19:30N 68°48' E 016°33'0 0.0
2017-Oct-15 18:58N 68°48' E 016°33'0 0.0
2017-Oct-15 18:28N 68°48' E 016°33'0 0.0
2017-Oct-15 18:00N 68°48' E 016°33'0 0.0
2017-Oct-15 17:30N 68°48' E 016°33'0 0.0
2017-Oct-15 16:58N 68°48' E 016°33'0 0.0
2017-Oct-15 16:28N 68°48' E 016°33'0 0.0
2017-Oct-15 15:59N 68°48' E 016°33'0 0.0
2017-Oct-15 15:30N 68°48' E 016°33'0 0.0
2017-Oct-15 14:59N 68°48' E 016°33'0 0.0
2017-Oct-15 13:59N 68°48' E 016°33'2 4.2
2017-Oct-15 13:30N 68°50' E 016°36'4 8.7
2017-Oct-15 13:00N 68°54' E 016°40'2 3.9
2017-Oct-15 12:30N 68°56' E 016°42'0 0.0
2017-Oct-15 12:00N 68°56' E 016°42'0 0.0
2017-Oct-15 11:30N 68°56' E 016°42'0 0.0
2017-Oct-15 11:00N 68°56' E 016°42'0 0.0
2017-Oct-15 10:30N 68°56' E 016°42'0 0.0
2017-Oct-15 09:53N 68°56' E 016°42'0 0.0
2017-Oct-15 09:28N 68°56' E 016°42'2 4.6
2017-Oct-15 09:00N 68°56' E 016°48'4 8.6
2017-Oct-15 08:30N 68°58' E 016°59'4 8.5
2017-Oct-15 07:59N 68°59' E 017°10'4 8.5
2017-Oct-15 07:30N 69°02' E 017°19'4 8.6
2017-Oct-15 07:00N 69°06' E 017°25'5 8.8
2017-Oct-15 06:30N 69°07' E 017°37'4 8.9
2017-Oct-15 06:00N 69°09' E 017°49'4 9.0
2017-Oct-15 05:30N 69°11' E 017°60'3 5.4
2017-Oct-15 05:00N 69°13' E 018°04'0 0.0
2017-Oct-15 04:30N 69°13' E 018°04'0 0.0
2017-Oct-15 04:00N 69°13' E 018°04'0 0.0
2017-Oct-15 03:29N 69°13' E 018°04'0 0.0
2017-Oct-15 02:59N 69°13' E 018°04'0 0.0
2017-Oct-15 02:29N 69°13' E 018°04'0 0.0
2017-Oct-15 01:59N 69°13' E 018°04'0 0.0
2017-Oct-15 01:29N 69°13' E 018°04'0 0.0
2017-Oct-15 00:59N 69°13' E 018°04'0 0.0
2017-Oct-15 00:29N 69°13' E 018°04'0 0.0
2017-Oct-14 23:59N 69°13' E 018°04'0 0.0
2017-Oct-14 23:29N 69°13' E 018°04'0 0.0
2017-Oct-14 23:00N 69°13' E 018°04'0 0.0
2017-Oct-14 22:30N 69°13' E 018°04'0 0.0
2017-Oct-14 22:00N 69°13' E 018°04'0 0.0
2017-Oct-14 21:30N 69°13' E 018°04'0 0.0
2017-Oct-14 20:58N 69°13' E 018°04'0 0.0
2017-Oct-14 20:28N 69°13' E 018°04'0 0.0
2017-Oct-14 19:58N 69°13' E 018°04'0 0.0
2017-Oct-14 19:28N 69°13' E 018°04'0 0.0
2017-Oct-14 18:58N 69°13' E 018°04'0 0.0
2017-Oct-14 18:28N 69°13' E 018°04'0 0.0
2017-Oct-14 17:58N 69°13' E 018°04'0 0.0
2017-Oct-14 17:28N 69°13' E 018°04'0 0.0
2017-Oct-14 16:58N 69°13' E 018°04'0 0.0
2017-Oct-14 16:28N 69°13' E 018°04'0 0.0
2017-Oct-14 15:58N 69°13' E 018°04'0 0.0
2017-Oct-14 15:30N 69°13' E 018°04'0 0.0
2017-Oct-14 14:59N 69°13' E 018°04'0 0.0
2017-Oct-14 14:29N 69°13' E 018°04'0 0.0
2017-Oct-14 14:00N 69°13' E 018°04'0 0.0
2017-Oct-14 13:29N 69°13' E 018°04'0 0.0
2017-Oct-14 12:59N 69°13' E 018°04'0 0.0
2017-Oct-14 12:30N 69°13' E 018°04'0 0.0
2017-Oct-14 12:00N 69°13' E 018°04'0 0.0
2017-Oct-14 11:30N 69°13' E 018°04'0 0.0
2017-Oct-14 11:00N 69°13' E 018°04'0 0.0
2017-Oct-14 10:29N 69°13' E 018°04'0 0.1
2017-Oct-14 10:00N 69°13' E 018°04'0 0.0
2017-Oct-14 09:30N 69°13' E 018°04'0 0.0
2017-Oct-14 09:00N 69°13' E 018°04'0 0.0
2017-Oct-14 08:30N 69°13' E 018°04'0 0.0
2017-Oct-14 08:00N 69°13' E 018°04'0 0.0
2017-Oct-14 07:30N 69°13' E 018°04'0 0.0
2017-Oct-14 07:00N 69°13' E 018°04'0 0.0
2017-Oct-14 06:30N 69°13' E 018°04'0 0.0
2017-Oct-14 06:00N 69°13' E 018°04'0 0.1
2017-Oct-14 05:28N 69°13' E 018°04'0 0.0
2017-Oct-14 04:58N 69°13' E 018°04'0 0.0
2017-Oct-14 04:28N 69°13' E 018°04'0 0.0
2017-Oct-14 03:58N 69°13' E 018°04'0 0.0
2017-Oct-14 03:28N 69°13' E 018°04'0 0.0
2017-Oct-14 02:58N 69°13' E 018°04'0 0.0
2017-Oct-14 02:28N 69°13' E 018°04'0 0.0
2017-Oct-14 01:58N 69°13' E 018°04'0 0.0
2017-Oct-14 01:28N 69°13' E 018°04'0 0.0
2017-Oct-14 00:58N 69°13' E 018°04'0 0.0
2017-Oct-14 00:28N 69°13' E 018°04'0 0.0
2017-Oct-13 23:58N 69°13' E 018°04'0 0.0
2017-Oct-13 23:28N 69°13' E 018°04'0 0.0
2017-Oct-13 22:58N 69°13' E 018°04'0 0.0
2017-Oct-13 22:28N 69°13' E 018°04'0 0.0
2017-Oct-13 21:58N 69°13' E 018°04'0 0.0
2017-Oct-13 21:28N 69°13' E 018°04'0 0.0
2017-Oct-13 20:56N 69°13' E 018°04'0 0.0
2017-Oct-13 20:29N 69°13' E 018°04'0 0.0
2017-Oct-13 19:59N 69°13' E 018°04'0 0.0
2017-Oct-13 19:30N 69°13' E 018°04'0 0.0
2017-Oct-13 19:00N 69°13' E 018°04'0 0.0
2017-Oct-13 18:30N 69°13' E 018°04'0 0.4
2017-Oct-13 18:00N 69°13' E 018°04'4 8.6
2017-Oct-13 17:30N 69°10' E 017°56'5 9.3
2017-Oct-13 17:00N 69°08' E 017°44'5 9.4
2017-Oct-13 16:30N 69°07' E 017°32'4 8.6
2017-Oct-13 16:00N 69°04' E 017°22'5 9.2
2017-Oct-13 15:30N 69°00' E 017°14'5 9.0
2017-Oct-13 15:00N 68°59' E 017°03'4 8.6
2017-Oct-13 14:30N 69°00' E 016°51'4 7.7
2017-Oct-13 14:00N 69°04' E 016°47'0 0.7
2017-Oct-13 13:30N 69°04' E 016°47'5 9.0
2017-Oct-13 12:59N 68°59' E 016°46'3 6.0
2017-Oct-13 12:29N 68°56' E 016°44'0 0.2
2017-Oct-13 11:58N 68°56' E 016°43'0 0.0
2017-Oct-13 11:30N 68°56' E 016°43'0 0.0
2017-Oct-13 10:59N 68°56' E 016°43'0 0.0
2017-Oct-13 10:29N 68°56' E 016°43'0 0.0
2017-Oct-13 09:59N 68°56' E 016°43'0 0.0
2017-Oct-13 09:29N 68°56' E 016°43'0 0.0
2017-Oct-13 09:00N 68°56' E 016°43'0 0.0
2017-Oct-13 08:30N 68°56' E 016°43'0 0.1
2017-Oct-13 07:58N 68°56' E 016°44'6 0.4
2017-Oct-12 16:24N 68°50' E 016°37'3 8.5
2017-Oct-12 16:00N 68°54' E 016°40'3 5.6
2017-Oct-12 15:30N 68°56' E 016°44'0 0.0
2017-Oct-12 15:00N 68°56' E 016°44'0 0.0
2017-Oct-12 14:30N 68°56' E 016°44'0 0.0
2017-Oct-12 14:00N 68°56' E 016°44'0 0.0
2017-Oct-12 13:28N 68°56' E 016°44'0 0.0
2017-Oct-12 12:57N 68°56' E 016°44'1 1.5
2017-Oct-12 12:30N 68°56' E 016°42'1 2.3
2017-Oct-12 12:00N 68°56' E 016°40'5 9.1
2017-Oct-12 11:30N 68°52' E 016°38'0 0.3
2017-Oct-12 11:00N 68°52' E 016°39'4 7.9
2017-Oct-12 10:30N 68°56' E 016°42'0 0.1
2017-Oct-12 09:58N 68°56' E 016°42'0 0.0
2017-Oct-12 09:28N 68°56' E 016°42'1 1.5
2017-Oct-12 09:00N 68°56' E 016°44'0 0.7
2017-Oct-12 08:30N 68°56' E 016°43'0 0.1
2017-Oct-12 07:58N 68°56' E 016°43'0 0.0
2017-Oct-12 07:28N 68°56' E 016°43'0 0.0
2017-Oct-12 06:59N 68°56' E 016°43'0 0.0
2017-Oct-12 06:29N 68°56' E 016°43'0 0.0
2017-Oct-12 06:00N 68°56' E 016°43'0 0.0
2017-Oct-12 05:29N 68°56' E 016°43'2 5.1
2017-Oct-12 05:00N 68°54' E 016°40'4 9.0
2017-Oct-12 04:30N 68°50' E 016°36'2 3.5
2017-Oct-12 03:58N 68°48' E 016°33'0 0.0
2017-Oct-12 03:29N 68°48' E 016°33'0 0.0
2017-Oct-12 02:58N 68°48' E 016°33'0 0.0
2017-Oct-12 02:28N 68°48' E 016°33'0 0.0
2017-Oct-12 01:58N 68°48' E 016°33'0 0.0
2017-Oct-12 01:28N 68°48' E 016°33'0 0.0
2017-Oct-12 00:57N 68°48' E 016°33'0 0.0
2017-Oct-12 00:30N 68°48' E 016°33'0 0.0
2017-Oct-12 00:00N 68°48' E 016°33'0 0.0
2017-Oct-11 23:29N 68°48' E 016°33'0 0.0
2017-Oct-11 22:59N 68°48' E 016°33'0 0.0
2017-Oct-11 22:29N 68°48' E 016°33'0 0.0
2017-Oct-11 21:59N 68°48' E 016°33'0 0.0
2017-Oct-11 21:29N 68°48' E 016°33'0 0.0
2017-Oct-11 21:00N 68°48' E 016°33'0 0.0
2017-Oct-11 20:30N 68°48' E 016°33'0 0.0
2017-Oct-11 19:59N 68°48' E 016°33'0 0.0
2017-Oct-11 19:29N 68°48' E 016°33'0 0.0
2017-Oct-11 18:58N 68°48' E 016°33'0 0.0
2017-Oct-11 18:30N 68°48' E 016°33'0 0.0
2017-Oct-11 18:00N 68°48' E 016°33'0 0.0
2017-Oct-11 17:28N 68°48' E 016°33'0 0.0
2017-Oct-11 16:58N 68°48' E 016°33'17 1.0
2017-Oct-11 00:00N 69°04' E 016°49'0 0.0
2017-Oct-10 23:30N 69°04' E 016°49'0 0.0
2017-Oct-10 23:00N 69°04' E 016°49'0 0.0
2017-Oct-10 22:30N 69°04' E 016°49'0 0.0
2017-Oct-10 22:00N 69°04' E 016°49'0 0.0
2017-Oct-10 21:30N 69°04' E 016°49'0 0.0
2017-Oct-10 21:00N 69°04' E 016°49'0 0.0
2017-Oct-10 20:28N 69°04' E 016°49'0 0.0
2017-Oct-10 19:58N 69°04' E 016°49'0 0.0
2017-Oct-10 19:27N 69°04' E 016°49'0 0.0
2017-Oct-10 19:00N 69°04' E 016°49'0 0.0
2017-Oct-10 18:28N 69°04' E 016°49'0 0.0
2017-Oct-10 17:58N 69°04' E 016°49'0 0.0
2017-Oct-10 17:29N 69°04' E 016°49'0 0.0
2017-Oct-10 16:59N 69°04' E 016°49'0 0.0
2017-Oct-10 16:30N 69°04' E 016°49'0 0.0
2017-Oct-10 15:54N 69°04' E 016°49'0 0.4
2017-Oct-10 15:30N 69°04' E 016°48'4 8.9
2017-Oct-10 15:00N 68°60' E 016°46'4 4.0
2017-Oct-10 13:57N 68°56' E 016°42'0 0.0
2017-Oct-10 13:28N 68°56' E 016°42'0 0.0
2017-Oct-10 12:58N 68°56' E 016°42'0 0.0
2017-Oct-10 12:29N 68°56' E 016°42'0 0.0
2017-Oct-10 11:59N 68°56' E 016°42'0 0.0
2017-Oct-10 11:29N 68°56' E 016°42'0 0.0
2017-Oct-10 10:59N 68°56' E 016°42'0 0.0
2017-Oct-10 10:29N 68°56' E 016°42'0 0.0
2017-Oct-10 09:59N 68°56' E 016°42'0 0.1
2017-Oct-10 09:30N 68°56' E 016°42'0 0.0
2017-Oct-10 08:58N 68°56' E 016°42'0 0.0
2017-Oct-10 08:30N 68°56' E 016°42'0 0.0
2017-Oct-10 08:00N 68°56' E 016°42'0 0.0
2017-Oct-10 07:30N 68°56' E 016°42'0 0.0
2017-Oct-10 06:58N 68°56' E 016°42'0 0.0
2017-Oct-10 06:28N 68°56' E 016°42'0 0.0
2017-Oct-10 05:58N 68°56' E 016°42'0 0.0
2017-Oct-10 05:28N 68°56' E 016°42'0 0.0
2017-Oct-10 04:59N 68°56' E 016°42'3 5.8
2017-Oct-10 04:30N 68°53' E 016°39'5 9.3
2017-Oct-10 03:59N 68°49' E 016°35'1 1.7
2017-Oct-10 03:29N 68°48' E 016°33'0 0.0
2017-Oct-10 03:00N 68°48' E 016°33'0 0.0
2017-Oct-10 02:30N 68°48' E 016°33'0 0.0
2017-Oct-10 02:00N 68°48' E 016°33'0 0.0
2017-Oct-10 01:29N 68°48' E 016°33'0 0.0
2017-Oct-10 00:58N 68°48' E 016°33'0 0.0
2017-Oct-10 00:30N 68°48' E 016°33'0 0.0
2017-Oct-10 00:00N 68°48' E 016°33'0 0.0
2017-Oct-09 23:30N 68°48' E 016°33'0 0.0
2017-Oct-09 23:00N 68°48' E 016°33'0 0.0
2017-Oct-09 22:30N 68°48' E 016°33'0 0.0
2017-Oct-09 22:00N 68°48' E 016°33'0 0.0
2017-Oct-09 21:30N 68°48' E 016°33'0 0.0
2017-Oct-09 21:00N 68°48' E 016°33'0 0.0
2017-Oct-09 20:30N 68°48' E 016°33'0 0.0
2017-Oct-09 19:58N 68°48' E 016°33'0 0.0
2017-Oct-09 19:28N 68°48' E 016°33'0 0.0
2017-Oct-09 19:00N 68°48' E 016°33'0 0.0
2017-Oct-09 18:30N 68°48' E 016°33'0 0.0
2017-Oct-09 18:00N 68°48' E 016°33'0 0.0
2017-Oct-09 17:30N 68°48' E 016°33'0 0.0
2017-Oct-09 17:00N 68°48' E 016°33'0 0.0
2017-Oct-09 16:30N 68°48' E 016°33'0 0.0
2017-Oct-09 16:00N 68°48' E 016°33'0 0.0
2017-Oct-09 15:30N 68°48' E 016°33'3 6.5
2017-Oct-09 15:00N 68°51' E 016°37'5 9.7
2017-Oct-09 14:30N 68°56' E 016°39'1 2.0
2017-Oct-09 13:58N 68°56' E 016°42'0 0.1
2017-Oct-09 13:29N 68°56' E 016°42'0 0.0
2017-Oct-09 12:59N 68°56' E 016°42'0 0.0
2017-Oct-09 12:24N 68°56' E 016°42'0 0.0
2017-Oct-09 11:59N 68°56' E 016°42'0 0.0
2017-Oct-09 11:29N 68°56' E 016°42'0 0.0
2017-Oct-09 10:58N 68°56' E 016°42'0 0.1
2017-Oct-09 10:29N 68°56' E 016°42'0 0.1
2017-Oct-09 10:00N 68°56' E 016°42'0 0.0
2017-Oct-09 09:29N 68°56' E 016°42'0 0.0
2017-Oct-09 09:00N 68°56' E 016°42'0 0.0
2017-Oct-09 08:27N 68°56' E 016°42'0 0.0
2017-Oct-09 07:59N 68°56' E 016°42'0 0.0
2017-Oct-09 07:29N 68°56' E 016°42'0 0.0
2017-Oct-09 06:58N 68°56' E 016°42'0 0.0
2017-Oct-09 06:26N 68°56' E 016°42'0 0.1
2017-Oct-09 06:00N 68°56' E 016°42'0 0.4
2017-Oct-09 05:30N 68°56' E 016°42'0 0.0
2017-Oct-09 05:00N 68°56' E 016°42'3 5.3
2017-Oct-09 04:30N 68°53' E 016°39'5 9.6
2017-Oct-09 04:00N 68°49' E 016°35'1 1.8
2017-Oct-09 03:29N 68°48' E 016°33'0 0.0
2017-Oct-09 02:58N 68°48' E 016°33'0 0.0
2017-Oct-09 02:28N 68°48' E 016°33'0 0.0
2017-Oct-09 01:58N 68°48' E 016°33'0 0.0
2017-Oct-09 01:29N 68°48' E 016°33'0 0.0
2017-Oct-09 00:59N 68°48' E 016°33'0 0.0
2017-Oct-09 00:30N 68°48' E 016°33'0 0.0
2017-Oct-09 00:00N 68°48' E 016°33'0 0.0
2017-Oct-08 23:30N 68°48' E 016°33'0 0.0
2017-Oct-08 23:00N 68°48' E 016°33'0 0.0
2017-Oct-08 22:30N 68°48' E 016°33'0 0.0
2017-Oct-08 21:58N 68°48' E 016°33'0 0.0
2017-Oct-08 21:30N 68°48' E 016°33'0 0.0
2017-Oct-08 20:58N 68°48' E 016°33'0 0.0
2017-Oct-08 20:28N 68°48' E 016°33'0 0.0
2017-Oct-08 20:00N 68°48' E 016°33'0 0.0
2017-Oct-08 19:30N 68°48' E 016°33'0 0.0
2017-Oct-08 19:00N 68°48' E 016°33'0 0.0
2017-Oct-08 18:30N 68°48' E 016°33'0 0.0
2017-Oct-08 18:00N 68°48' E 016°33'4 8.4
2017-Oct-08 17:30N 68°52' E 016°38'5 9.2
2017-Oct-08 17:00N 68°56' E 016°40'1 2.0
2017-Oct-08 16:30N 68°56' E 016°41'5 9.7
2017-Oct-08 15:59N 68°57' E 016°54'5 9.6
2017-Oct-08 15:29N 68°59' E 017°06'5 9.6
2017-Oct-08 15:00N 69°01' E 017°17'5 9.6
2017-Oct-08 14:30N 69°05' E 017°25'5 9.6
2017-Oct-08 14:00N 69°07' E 017°37'5 9.5
2017-Oct-08 13:30N 69°09' E 017°49'5 9.5
2017-Oct-08 13:00N 69°11' E 018°01'2 4.4
2017-Oct-08 12:30N 69°13' E 018°04'0 0.0
2017-Oct-08 12:00N 69°13' E 018°04'0 0.0
2017-Oct-08 11:30N 69°13' E 018°04'0 0.0
2017-Oct-08 11:00N 69°13' E 018°04'0 0.0
2017-Oct-08 10:30N 69°13' E 018°04'0 0.0
2017-Oct-08 09:59N 69°13' E 018°04'0 0.0
2017-Oct-08 09:29N 69°13' E 018°04'0 0.0
2017-Oct-08 08:59N 69°13' E 018°04'0 0.0
2017-Oct-08 08:29N 69°13' E 018°04'0 0.0
2017-Oct-08 07:59N 69°13' E 018°04'0 0.0
2017-Oct-08 07:29N 69°13' E 018°04'0 0.1
2017-Oct-08 06:59N 69°13' E 018°04'0 0.0
2017-Oct-08 06:29N 69°13' E 018°04'0 0.0
2017-Oct-08 05:59N 69°13' E 018°04'0 0.0
2017-Oct-08 05:29N 69°13' E 018°04'0 0.0
2017-Oct-08 04:59N 69°13' E 018°04'0 0.0
2017-Oct-08 04:29N 69°13' E 018°04'0 0.0
2017-Oct-08 03:59N 69°13' E 018°04'0 0.0
2017-Oct-08 03:29N 69°13' E 018°04'0 0.0
2017-Oct-08 02:59N 69°13' E 018°04'0 0.0
2017-Oct-08 02:29N 69°13' E 018°04'0 0.0
2017-Oct-08 01:59N 69°13' E 018°04'0 0.0
2017-Oct-08 01:29N 69°13' E 018°04'0 0.0
2017-Oct-08 00:58N 69°13' E 018°04'0 0.0
2017-Oct-08 00:28N 69°13' E 018°04'0 0.0
2017-Oct-07 23:58N 69°13' E 018°04'0 0.0
2017-Oct-07 23:28N 69°13' E 018°04'0 0.0
2017-Oct-07 22:58N 69°13' E 018°04'0 0.0
2017-Oct-07 22:28N 69°13' E 018°04'0 0.0
2017-Oct-07 21:58N 69°13' E 018°04'0 0.0
2017-Oct-07 21:28N 69°13' E 018°04'0 0.0
2017-Oct-07 20:58N 69°13' E 018°04'0 0.0
2017-Oct-07 20:28N 69°13' E 018°04'0 0.0
2017-Oct-07 19:58N 69°13' E 018°04'0 0.0
2017-Oct-07 19:30N 69°13' E 018°04'0 0.0
2017-Oct-07 19:00N 69°13' E 018°04'0 0.0
2017-Oct-07 18:30N 69°13' E 018°04'0 0.0
2017-Oct-07 18:00N 69°13' E 018°04'0 0.0
2017-Oct-07 17:30N 69°13' E 018°04'0 0.0
2017-Oct-07 17:00N 69°13' E 018°04'0 0.0
2017-Oct-07 16:30N 69°13' E 018°04'0 0.0
2017-Oct-07 16:00N 69°13' E 018°04'0 0.0
2017-Oct-07 15:30N 69°13' E 018°04'0 0.0
2017-Oct-07 15:00N 69°13' E 018°04'4 8.5
2017-Oct-07 14:30N 69°10' E 017°56'5 9.8
2017-Oct-07 14:00N 69°08' E 017°43'3 5.8
2017-Oct-07 13:30N 69°09' E 017°35'4 7.2
2017-Oct-07 13:00N 69°05' E 017°31'0 0.0
2017-Oct-07 12:30N 69°05' E 017°31'0 0.0
2017-Oct-07 12:00N 69°05' E 017°31'0 0.0
2017-Oct-07 11:30N 69°05' E 017°31'0 0.0
2017-Oct-07 11:00N 69°05' E 017°31'0 0.0
2017-Oct-07 10:30N 69°05' E 017°31'0 0.0
2017-Oct-07 10:00N 69°05' E 017°31'0 0.0
2017-Oct-07 09:30N 69°05' E 017°31'0 0.0
2017-Oct-07 09:00N 69°05' E 017°31'0 0.0
2017-Oct-07 08:30N 69°05' E 017°31'0 0.0
2017-Oct-07 08:00N 69°05' E 017°31'0 0.0
2017-Oct-07 07:30N 69°05' E 017°31'0 0.0
2017-Oct-07 07:00N 69°05' E 017°31'0 0.0
2017-Oct-07 06:27N 69°05' E 017°31'0 0.0
2017-Oct-07 06:00N 69°05' E 017°31'1 2.4
2017-Oct-07 05:30N 69°06' E 017°32'3 6.3
2017-Oct-07 04:58N 69°10' E 017°36'0 0.0
2017-Oct-07 04:28N 69°10' E 017°36'0 0.0
2017-Oct-07 03:55N 69°10' E 017°36'0 0.0
2017-Oct-07 03:28N 69°10' E 017°36'0 0.0
2017-Oct-07 02:57N 69°10' E 017°36'0 0.0
2017-Oct-07 02:30N 69°10' E 017°36'0 0.0
2017-Oct-07 01:58N 69°10' E 017°36'0 0.0
2017-Oct-07 01:29N 69°10' E 017°36'  

Dump ship's entire track history